createdAt,value
2023-01-21T00:01:51.891Z,23.31
2023-01-21T00:09:23.673Z,23.29
2023-01-21T00:16:55.522Z,23.29
2023-01-21T00:24:27.339Z,23.29
2023-01-21T00:31:59.172Z,23.28
2023-01-21T00:39:30.985Z,23.29
2023-01-21T00:47:02.756Z,23.28
2023-01-21T00:54:34.582Z,23.28
2023-01-21T01:02:06.504Z,23.26
2023-01-21T01:09:38.263Z,23.27
2023-01-21T01:17:10.060Z,23.25
2023-01-21T01:24:41.786Z,23.23
2023-01-21T01:32:13.542Z,23.23
2023-01-21T01:39:45.477Z,23.23
2023-01-21T01:47:17.231Z,23.21
2023-01-21T01:54:51.903Z,23.22
2023-01-21T02:02:23.693Z,23.19
2023-01-21T02:09:55.459Z,23.20
2023-01-21T02:17:58.611Z,23.21
2023-01-21T02:25:55.730Z,23.20
2023-01-21T02:33:42.505Z,23.20
2023-01-21T02:41:57.464Z,23.18
2023-01-21T02:49:48.331Z,23.17
2023-01-21T02:57:29.566Z,23.16
2023-01-21T03:05:55.038Z,23.18
2023-01-21T03:13:44.985Z,23.16
2023-01-21T03:21:19.605Z,23.17
2023-01-21T03:28:53.136Z,23.16
2023-01-21T03:36:49.495Z,23.15
2023-01-21T03:44:21.320Z,23.13
2023-01-21T03:51:54.911Z,23.14
2023-01-21T03:59:26.633Z,23.14
2023-01-21T04:06:58.371Z,23.15
2023-01-21T04:14:30.196Z,23.13
2023-01-21T04:22:01.929Z,23.13
2023-01-21T04:29:33.695Z,23.12
2023-01-21T04:37:05.445Z,23.12
2023-01-21T04:44:37.184Z,23.11
2023-01-21T04:52:09.331Z,23.12
2023-01-21T04:59:41.117Z,23.10
2023-01-21T05:07:13.179Z,23.09
2023-01-21T05:14:44.979Z,23.10
2023-01-21T05:22:17.373Z,23.09
2023-01-21T05:29:49.202Z,23.08
2023-01-21T05:37:20.975Z,23.08
2023-01-21T05:44:52.708Z,23.08
2023-01-21T05:52:24.425Z,23.08
2023-01-21T05:59:56.198Z,23.08
2023-01-21T06:07:27.881Z,23.09
2023-01-21T06:15:00.396Z,23.10
2023-01-21T06:22:32.188Z,23.10
2023-01-21T06:30:08.096Z,23.08
2023-01-21T06:37:39.860Z,23.09
2023-01-21T06:45:11.660Z,23.07
2023-01-21T06:52:44.590Z,23.08
2023-01-21T07:00:17.420Z,23.08
2023-01-21T07:07:49.374Z,23.09
2023-01-21T07:15:21.244Z,23.08
2023-01-21T07:22:53.042Z,23.08
2023-01-21T07:30:24.821Z,23.06
2023-01-21T07:37:56.538Z,22.95
2023-01-21T07:53:45.128Z,23.00
2023-01-21T08:06:52.882Z,22.86
2023-01-21T08:16:54.616Z,22.86
2023-01-21T08:27:00.307Z,23.08
2023-01-21T08:37:02.099Z,23.13
2023-01-21T08:47:03.980Z,23.11
2023-01-21T08:57:05.728Z,23.13
2023-01-21T09:07:07.690Z,23.16
2023-01-21T09:17:10.662Z,23.18
2023-01-21T09:27:12.427Z,23.23
2023-01-21T09:37:14.177Z,23.26
2023-01-21T09:47:32.203Z,23.24
2023-01-21T09:58:07.997Z,23.26
2023-01-21T10:08:43.504Z,23.27
2023-01-21T10:18:46.951Z,23.30
2023-01-21T10:28:51.320Z,23.27
2023-01-21T10:39:23.334Z,23.28
2023-01-21T10:50:13.524Z,23.30
2023-01-21T11:00:31.265Z,23.28
2023-01-21T11:10:33.080Z,23.27
2023-01-21T11:20:41.738Z,23.28
2023-01-21T11:30:50.700Z,23.27
2023-01-21T11:41:15.165Z,23.25
2023-01-21T11:51:17.864Z,23.25
2023-01-21T12:01:21.327Z,23.23
2023-01-21T12:11:24.784Z,23.23
2023-01-21T12:21:45.208Z,23.29
2023-01-21T12:32:04.229Z,23.34
2023-01-21T12:42:27.419Z,23.39
2023-01-21T12:52:42.273Z,23.36
2023-01-21T13:03:26.658Z,23.35
2023-01-21T13:13:37.513Z,23.32
2023-01-21T13:24:32.033Z,23.29
2023-01-21T13:35:01.419Z,23.29
2023-01-21T13:45:27.089Z,23.28
2023-01-21T13:56:05.162Z,23.28
2023-01-21T14:06:13.281Z,23.31
2023-01-21T14:16:38.903Z,23.32
2023-01-21T14:27:34.963Z,23.33
2023-01-21T14:37:46.101Z,23.38
2023-01-21T14:47:55.050Z,23.41
2023-01-21T14:57:57.520Z,23.41
2023-01-21T15:08:19.810Z,23.45
2023-01-21T15:18:39.287Z,23.43
2023-01-21T15:28:52.051Z,23.46
2023-01-21T15:39:00.762Z,23.41
2023-01-21T15:49:16.340Z,23.45
2023-01-21T15:59:38.483Z,23.38
2023-01-21T16:10:24.085Z,23.34
2023-01-21T16:20:25.834Z,23.33
2023-01-21T16:30:31.695Z,23.32
2023-01-21T16:40:33.668Z,23.27
2023-01-21T16:50:35.588Z,23.28
2023-01-21T17:00:37.369Z,23.28
2023-01-21T17:10:47.138Z,23.27
2023-01-21T17:20:51.485Z,23.28
2023-01-21T17:31:15.434Z,23.31
2023-01-21T17:41:24.206Z,23.33
2023-01-21T17:51:30.160Z,23.31
2023-01-21T18:01:32.137Z,23.31
2023-01-21T18:11:34.018Z,23.33
2023-01-21T18:21:35.851Z,23.37
2023-01-21T18:31:38.246Z,23.36
2023-01-21T18:41:40.276Z,23.37
2023-01-21T18:51:42.327Z,23.38
2023-01-21T19:01:44.352Z,23.41
2023-01-21T19:11:46.191Z,23.36
2023-01-21T19:21:48.036Z,23.37
2023-01-21T19:31:49.933Z,23.37
2023-01-21T19:42:07.051Z,23.38
2023-01-21T19:52:13.350Z,23.41
2023-01-21T20:02:15.180Z,23.41
2023-01-21T20:12:17.618Z,23.42
2023-01-21T20:22:19.349Z,23.40
2023-01-21T20:32:21.200Z,23.39
2023-01-21T20:42:23.140Z,23.44
2023-01-21T20:52:24.884Z,23.42
2023-01-21T21:02:26.639Z,23.41
2023-01-21T21:12:28.407Z,23.42
2023-01-21T21:22:30.150Z,23.43
2023-01-21T21:32:31.874Z,23.47
2023-01-21T21:42:52.470Z,23.48
2023-01-21T21:52:54.257Z,23.49
2023-01-21T22:03:02.506Z,23.49
2023-01-21T22:13:04.276Z,23.51
2023-01-21T22:23:06.067Z,23.50
2023-01-21T22:33:07.990Z,23.52
2023-01-21T22:43:10.265Z,23.53
2023-01-21T22:53:12.535Z,23.53
2023-01-21T23:03:14.304Z,23.49
2023-01-21T23:13:16.223Z,23.46
2023-01-21T23:23:18.079Z,23.48
2023-01-21T23:33:19.853Z,23.46
2023-01-21T23:43:26.588Z,23.45
2023-01-21T23:53:28.571Z,23.42
